Time;durP1;ratioP1;P1;durP2;ratioP2;P2;SDS_P1;SDS_P2;PMS_P1;PMS_P2;Temp;Humidity;BMP_temperature;BMP_pressure;BME280_temperature;BME280_humidity;BME280_pressure;Samples;Min_cycle;Max_cycle;Signal;HPM_P1;HPM_P2
2023/05/10 00:01:25;;;;;;;6.60;4.40;;;;;;;;;;108155;279;28439;-33
2023/05/10 00:04:00;;;;;;;6.50;3.90;;;;;;;;;;108131;279;29408;-33
2023/05/10 00:06:36;;;;;;;6.30;4.10;;;;;;;;;;108185;280;27808;-33
2023/05/10 00:09:11;;;;;;;5.80;3.80;;;;;;;;;;107505;272;894553;-33
2023/05/10 00:11:45;;;;;;;6.40;4.10;;;;;;;;;;108204;280;27989;-33
2023/05/10 00:14:22;;;;;;;6.80;4.10;;;;;;;;;;108128;280;27204;-33
2023/05/10 00:16:58;;;;;;;6.30;3.80;;;;;;;;;;108192;272;28078;-33
2023/05/10 00:19:32;;;;;;;5.90;3.90;;;;;;;;;;108192;280;28659;-33
2023/05/10 00:22:06;;;;;;;5.70;4.10;;;;;;;;;;108211;280;27911;-32
2023/05/10 00:24:42;;;;;;;6.10;4.00;;;;;;;;;;108160;277;27299;-32
2023/05/10 00:27:18;;;;;;;6.80;3.90;;;;;;;;;;108189;280;28420;-33
2023/05/10 00:29:53;;;;;;;6.30;4.10;;;;;;;;;;108135;280;28812;-33
2023/05/10 00:32:27;;;;;;;6.00;3.90;;;;;;;;;;108204;280;28017;-33
2023/05/10 00:35:01;;;;;;;6.50;4.00;;;;;;;;;;108146;272;27158;-33
2023/05/10 00:37:36;;;;;;;5.20;3.70;;;;;;;;;;108157;280;28305;-33
2023/05/10 00:40:13;;;;;;;5.80;3.90;;;;;;;;;;108165;272;28666;-33
2023/05/10 00:42:48;;;;;;;5.50;3.80;;;;;;;;;;108176;280;27708;-33
2023/05/10 00:45:30;;;;;;;5.80;3.80;;;;;;;;;;108096;278;26986;-33
2023/05/10 00:48:08;;;;;;;5.90;3.70;;;;;;;;;;108180;276;28187;-33
2023/05/10 00:50:42;;;;;;;5.90;3.80;;;;;;;;;;108123;282;28325;-32
2023/05/10 00:53:17;;;;;;;5.60;3.70;;;;;;;;;;108206;279;27899;-33
2023/05/10 00:55:52;;;;;;;5.60;3.60;;;;;;;;;;108177;280;27200;-33
2023/05/10 00:58:28;;;;;;;5.70;3.80;;;;;;;;;;108228;280;28094;-32
2023/05/10 01:01:07;;;;;;;5.50;3.80;;;;;;;;;;108190;280;28636;-33
2023/05/10 01:03:42;;;;;;;5.90;3.80;;;;;;;;;;108185;280;27909;-33
2023/05/10 01:06:16;;;;;;;6.00;4.10;;;;;;;;;;108132;280;27303;-33
2023/05/10 01:08:52;;;;;;;6.00;3.60;;;;;;;;;;107539;272;895084;-33
2023/05/10 01:11:28;;;;;;;5.50;3.60;;;;;;;;;;108179;280;28528;-33
2023/05/10 01:14:02;;;;;;;5.90;3.60;;;;;;;;;;107775;280;549190;-33
2023/05/10 01:16:41;;;;;;;5.70;3.90;;;;;;;;;;108103;281;27230;-33
2023/05/10 01:19:23;;;;;;;6.00;3.70;;;;;;;;;;108236;272;28219;-34
2023/05/10 01:22:21;;;;;;;5.80;3.70;;;;;;;;;;108247;280;28539;-33
2023/05/10 01:25:29;;;;;;;5.50;3.50;;;;;;;;;;108193;280;27591;-33
2023/05/10 01:28:56;;;;;;;5.60;3.70;;;;;;;;;;108188;280;33693;-33
2023/05/10 01:32:04;;;;;;;5.50;3.60;;;;;;;;;;108151;272;28443;-33
2023/05/10 01:34:51;;;;;;;5.00;3.50;;;;;;;;;;107561;272;893839;-33
2023/05/10 01:37:35;;;;;;;5.60;3.60;;;;;;;;;;108180;272;28053;-33
2023/05/10 01:40:19;;;;;;;5.20;3.40;;;;;;;;;;108157;272;27286;-34
2023/05/10 01:42:59;;;;;;;5.00;3.60;;;;;;;;;;108173;272;28038;-34
2023/05/10 01:45:41;;;;;;;5.30;3.60;;;;;;;;;;108159;280;28521;-33
2023/05/10 01:48:18;;;;;;;5.40;3.50;;;;;;;;;;108142;281;27870;-32
2023/05/10 01:50:54;;;;;;;5.10;3.30;;;;;;;;;;108209;280;27196;-33
2023/05/10 01:53:32;;;;;;;5.60;3.60;;;;;;;;;;108218;272;28188;-33
2023/05/10 01:56:10;;;;;;;5.30;3.20;;;;;;;;;;108157;280;28859;-32
2023/05/10 01:58:49;;;;;;;6.00;3.40;;;;;;;;;;108049;272;175591;-32
2023/05/10 02:01:27;;;;;;;5.40;3.40;;;;;;;;;;108187;272;27272;-33
2023/05/10 02:04:02;;;;;;;5.20;3.30;;;;;;;;;;108204;280;28433;-33
2023/05/10 02:06:38;;;;;;;5.50;3.40;;;;;;;;;;108043;280;175132;-33
2023/05/10 02:09:14;;;;;;;5.10;3.30;;;;;;;;;;108063;272;175642;-33
2023/05/10 02:11:50;;;;;;;6.30;3.70;;;;;;;;;;108184;272;29449;-34
2023/05/10 02:14:27;;;;;;;4.90;3.10;;;;;;;;;;108203;280;28218;-33
2023/05/10 02:17:04;;;;;;;5.00;3.50;;;;;;;;;;108138;272;28550;-32
2023/05/10 02:19:42;;;;;;;5.00;3.30;;;;;;;;;;108185;272;27650;-33
2023/05/10 02:22:19;;;;;;;5.00;3.30;;;;;;;;;;108168;280;27233;-33
2023/05/10 02:24:56;;;;;;;5.60;3.50;;;;;;;;;;108194;272;28185;-33
2023/05/10 02:27:32;;;;;;;4.70;3.10;;;;;;;;;;108147;280;28505;-34
2023/05/10 02:30:09;;;;;;;5.30;3.40;;;;;;;;;;108176;280;27884;-33
2023/05/10 02:32:44;;;;;;;5.60;3.50;;;;;;;;;;108193;280;27291;-33
2023/05/10 02:35:19;;;;;;;5.40;3.40;;;;;;;;;;108207;280;29206;-33
2023/05/10 02:37:57;;;;;;;4.90;3.30;;;;;;;;;;108055;275;175619;-33
2023/05/10 02:40:32;;;;;;;5.30;3.40;;;;;;;;;;108149;272;27886;-33
2023/05/10 02:43:13;;;;;;;5.50;3.40;;;;;;;;;;108164;272;27179;-33
2023/05/10 02:45:49;;;;;;;4.90;3.00;;;;;;;;;;108176;280;28238;-33
2023/05/10 02:48:25;;;;;;;5.40;3.40;;;;;;;;;;108132;272;28528;-33
2023/05/10 02:51:08;;;;;;;5.00;3.20;;;;;;;;;;108200;272;27899;-33
2023/05/10 02:53:45;;;;;;;5.50;3.60;;;;;;;;;;108191;280;27177;-34
2023/05/10 02:56:27;;;;;;;5.10;3.20;;;;;;;;;;108205;280;28401;-33
2023/05/10 02:59:04;;;;;;;5.80;3.40;;;;;;;;;;108186;272;28950;-33
2023/05/10 03:01:40;;;;;;;5.10;3.10;;;;;;;;;;108208;280;27614;-32
2023/05/10 03:04:14;;;;;;;5.40;3.40;;;;;;;;;;108133;282;27237;-33
2023/05/10 03:06:50;;;;;;;5.30;3.30;;;;;;;;;;108177;272;28235;-34
2023/05/10 03:09:25;;;;;;;5.70;3.80;;;;;;;;;;108135;280;28533;-33
2023/05/10 03:12:16;;;;;;;5.20;3.40;;;;;;;;;;108136;280;27990;-33
2023/05/10 03:14:58;;;;;;;5.20;3.30;;;;;;;;;;108127;280;28409;-33
2023/05/10 03:17:47;;;;;;;5.50;3.30;;;;;;;;;;108140;280;28229;-33
2023/05/10 03:20:30;;;;;;;4.80;3.00;;;;;;;;;;108110;280;35804;-33
2023/05/10 03:23:15;;;;;;;5.90;3.30;;;;;;;;;;108162;280;28737;-33
2023/05/10 03:25:52;;;;;;;5.10;3.20;;;;;;;;;;108181;280;27522;-33
2023/05/10 03:28:30;;;;;;;5.20;3.40;;;;;;;;;;108156;280;28284;-33
2023/05/10 03:31:06;;;;;;;5.40;3.20;;;;;;;;;;108188;273;28658;-33
2023/05/10 03:33:50;;;;;;;5.10;3.30;;;;;;;;;;108197;273;28180;-34
2023/05/10 03:36:26;;;;;;;5.10;3.20;;;;;;;;;;108166;273;27295;-34
2023/05/10 03:39:01;;;;;;;4.60;2.90;;;;;;;;;;108127;273;28199;-34
2023/05/10 03:41:39;;;;;;;4.70;3.20;;;;;;;;;;108182;280;28532;-34
2023/05/10 03:44:16;;;;;;;4.90;3.20;;;;;;;;;;108243;273;28015;-33
2023/05/10 03:46:54;;;;;;;4.80;3.10;;;;;;;;;;108217;273;27318;-33
2023/05/10 03:49:29;;;;;;;5.80;3.50;;;;;;;;;;108153;280;28335;-33
2023/05/10 03:52:08;;;;;;;4.90;3.20;;;;;;;;;;108223;273;28547;-34
2023/05/10 03:54:45;;;;;;;4.70;3.00;;;;;;;;;;108139;280;29153;-34
2023/05/10 03:57:19;;;;;;;5.30;3.20;;;;;;;;;;108163;280;26942;-34
2023/05/10 03:59:54;;;;;;;5.20;3.40;;;;;;;;;;108179;280;28518;-34
2023/05/10 04:02:30;;;;;;;5.00;3.00;;;;;;;;;;108174;280;28716;-33
2023/05/10 04:05:05;;;;;;;5.20;3.10;;;;;;;;;;108136;280;27838;-33
2023/05/10 04:07:40;;;;;;;4.60;2.90;;;;;;;;;;108132;280;27057;-33
2023/05/10 04:10:17;;;;;;;5.80;3.20;;;;;;;;;;108084;272;28224;-33
2023/05/10 04:12:51;;;;;;;5.10;3.00;;;;;;;;;;108176;280;28346;-34
2023/05/10 04:15:27;;;;;;;4.80;2.90;;;;;;;;;;108179;272;28006;-34
2023/05/10 04:18:01;;;;;;;5.00;3.00;;;;;;;;;;108161;280;27216;-33
2023/05/10 04:20:36;;;;;;;5.50;3.10;;;;;;;;;;108134;280;28097;-33
2023/05/10 04:23:11;;;;;;;5.60;3.10;;;;;;;;;;108209;280;28334;-33
2023/05/10 04:25:46;;;;;;;5.40;3.30;;;;;;;;;;108176;276;27992;-33
2023/05/10 04:28:21;;;;;;;5.60;3.00;;;;;;;;;;108173;280;27310;-33
2023/05/10 04:30:56;;;;;;;6.20;3.40;;;;;;;;;;108137;272;28105;-32
2023/05/10 04:33:31;;;;;;;6.20;3.30;;;;;;;;;;108101;280;175662;-32
2023/05/10 04:36:08;;;;;;;6.70;3.20;;;;;;;;;;108177;272;28623;-33
2023/05/10 04:38:43;;;;;;;5.70;3.50;;;;;;;;;;108217;272;28293;-33
2023/05/10 04:41:17;;;;;;;6.70;3.40;;;;;;;;;;108160;280;29464;-33
2023/05/10 04:43:51;;;;;;;6.40;3.40;;;;;;;;;;108208;272;28607;-33
2023/05/10 04:46:26;;;;;;;6.90;3.60;;;;;;;;;;108220;280;27902;-33
2023/05/10 04:49:01;;;;;;;6.90;3.80;;;;;;;;;;108185;280;27494;-32
2023/05/10 04:51:35;;;;;;;7.40;3.80;;;;;;;;;;108149;280;28177;-32
2023/05/10 04:54:11;;;;;;;6.50;3.30;;;;;;;;;;108190;280;28659;-33
2023/05/10 04:56:46;;;;;;;7.60;3.80;;;;;;;;;;108220;272;27662;-33
2023/05/10 04:59:22;;;;;;;7.40;3.50;;;;;;;;;;108086;280;175658;-33
2023/05/10 05:01:58;;;;;;;7.50;3.70;;;;;;;;;;108165;272;28104;-33
2023/05/10 05:04:35;;;;;;;6.80;3.60;;;;;;;;;;108192;280;28586;-33
2023/05/10 05:07:12;;;;;;;6.30;3.30;;;;;;;;;;108200;280;30140;-33
2023/05/10 05:09:46;;;;;;;6.70;3.30;;;;;;;;;;108203;272;27267;-33
2023/05/10 05:12:20;;;;;;;6.20;3.50;;;;;;;;;;108176;280;28593;-33
2023/05/10 05:14:54;;;;;;;5.50;3.30;;;;;;;;;;108208;280;28747;-34
2023/05/10 05:17:28;;;;;;;6.40;3.50;;;;;;;;;;108151;280;27637;-34
2023/05/10 05:20:02;;;;;;;5.70;3.40;;;;;;;;;;107514;272;895692;-33
2023/05/10 05:22:38;;;;;;;5.80;3.50;;;;;;;;;;108151;280;28211;-34
2023/05/10 05:25:13;;;;;;;6.40;3.40;;;;;;;;;;108134;272;28593;-34
2023/05/10 05:27:48;;;;;;;6.80;3.30;;;;;;;;;;108162;280;27631;-33
2023/05/10 05:30:22;;;;;;;5.90;3.40;;;;;;;;;;108131;272;27287;-33
2023/05/10 05:32:57;;;;;;;5.50;3.10;;;;;;;;;;108179;272;28077;-33
2023/05/10 05:35:31;;;;;;;6.40;3.40;;;;;;;;;;108199;280;28717;-33
2023/05/10 05:38:05;;;;;;;6.30;3.40;;;;;;;;;;108187;280;27886;-33
2023/05/10 05:40:43;;;;;;;5.50;3.10;;;;;;;;;;108146;280;27159;-33
2023/05/10 05:43:17;;;;;;;5.40;3.10;;;;;;;;;;108093;280;34151;-33
2023/05/10 05:45:52;;;;;;;5.10;3.20;;;;;;;;;;108189;280;28564;-33
2023/05/10 05:48:27;;;;;;;5.30;3.10;;;;;;;;;;108202;280;27808;-33
2023/05/10 05:51:02;;;;;;;5.90;3.30;;;;;;;;;;108198;272;26964;-34
2023/05/10 05:53:40;;;;;;;5.70;3.10;;;;;;;;;;108157;280;34031;-34
2023/05/10 05:56:17;;;;;;;5.20;2.90;;;;;;;;;;108195;272;28666;-34
2023/05/10 05:58:56;;;;;;;6.00;3.20;;;;;;;;;;108171;280;27894;-34
2023/05/10 06:01:30;;;;;;;5.10;3.10;;;;;;;;;;108140;280;27155;-34
2023/05/10 06:04:06;;;;;;;6.40;3.40;;;;;;;;;;108189;277;35579;-33
2023/05/10 06:06:42;;;;;;;5.00;3.20;;;;;;;;;;108199;280;28695;-33
2023/05/10 06:09:18;;;;;;;5.40;3.00;;;;;;;;;;108191;272;28074;-33
2023/05/10 06:11:52;;;;;;;5.00;3.00;;;;;;;;;;108150;280;27428;-33
2023/05/10 06:14:29;;;;;;;5.50;3.30;;;;;;;;;;108214;272;28112;-33
2023/05/10 06:17:04;;;;;;;5.30;2.90;;;;;;;;;;108174;281;28610;-33
2023/05/10 06:19:39;;;;;;;5.60;3.00;;;;;;;;;;108221;280;27891;-33
2023/05/10 06:22:15;;;;;;;4.90;3.00;;;;;;;;;;108126;280;27352;-33
2023/05/10 06:24:49;;;;;;;5.10;2.80;;;;;;;;;;108209;280;28302;-33
2023/05/10 06:27:24;;;;;;;5.60;2.90;;;;;;;;;;108184;281;28424;-34
2023/05/10 06:29:59;;;;;;;5.30;2.90;;;;;;;;;;108176;280;27654;-34
2023/05/10 06:32:46;;;;;;;5.00;2.90;;;;;;;;;;108094;272;27264;-34
2023/05/10 06:35:22;;;;;;;5.30;3.00;;;;;;;;;;108189;272;28257;-33
2023/05/10 06:37:57;;;;;;;5.20;3.00;;;;;;;;;;108167;280;29714;-33
2023/05/10 06:40:32;;;;;;;5.40;3.00;;;;;;;;;;108036;280;175630;-33
2023/05/10 06:43:07;;;;;;;5.10;3.20;;;;;;;;;;108127;280;27280;-32
2023/05/10 06:45:42;;;;;;;5.00;2.90;;;;;;;;;;108182;280;28091;-33
2023/05/10 06:48:16;;;;;;;6.00;3.10;;;;;;;;;;108141;280;28699;-33
2023/05/10 06:50:51;;;;;;;5.10;3.00;;;;;;;;;;108204;272;27866;-33
2023/05/10 06:53:25;;;;;;;5.50;3.20;;;;;;;;;;108139;272;27279;-33
2023/05/10 06:56:00;;;;;;;5.10;3.10;;;;;;;;;;108205;280;28182;-33
2023/05/10 06:58:35;;;;;;;4.80;3.00;;;;;;;;;;108160;280;29824;-33
2023/05/10 07:01:14;;;;;;;5.00;3.10;;;;;;;;;;108148;272;29266;-33
2023/05/10 07:03:48;;;;;;;6.30;3.20;;;;;;;;;;108128;272;28139;-33
2023/05/10 07:06:22;;;;;;;5.50;3.40;;;;;;;;;;108153;280;28062;-33
2023/05/10 07:09:11;;;;;;;5.50;3.30;;;;;;;;;;108158;280;29216;-33
2023/05/10 07:11:45;;;;;;;6.30;3.10;;;;;;;;;;108154;280;29035;-33
2023/05/10 07:14:20;;;;;;;6.20;3.50;;;;;;;;;;108135;280;27186;-33
2023/05/10 07:16:54;;;;;;;5.60;3.10;;;;;;;;;;108165;272;28419;-33
2023/05/10 07:19:29;;;;;;;5.30;3.20;;;;;;;;;;108190;279;28506;-33
2023/05/10 07:22:03;;;;;;;5.60;3.30;;;;;;;;;;108200;280;27864;-33
2023/05/10 07:24:37;;;;;;;6.80;3.60;;;;;;;;;;108131;280;28326;-33
2023/05/10 07:27:12;;;;;;;5.80;3.40;;;;;;;;;;108220;280;28913;-33
2023/05/10 07:29:46;;;;;;;6.20;2.90;;;;;;;;;;108153;280;28658;-36
2023/05/10 07:32:21;;;;;;;5.80;3.40;;;;;;;;;;108270;279;28246;-34
2023/05/10 07:34:56;;;;;;;5.10;2.80;;;;;;;;;;108219;279;28241;-33
2023/05/10 07:37:30;;;;;;;5.80;3.40;;;;;;;;;;108237;272;28858;-34
2023/05/10 07:40:05;;;;;;;5.00;2.90;;;;;;;;;;108266;275;28728;-33
2023/05/10 07:42:38;;;;;;;4.70;2.70;;;;;;;;;;108232;279;29064;-34
2023/05/10 07:45:13;;;;;;;5.10;2.90;;;;;;;;;;108241;279;28425;-34
2023/05/10 07:47:50;;;;;;;5.80;2.90;;;;;;;;;;108181;271;30423;-34
2023/05/10 07:50:25;;;;;;;4.70;2.90;;;;;;;;;;108245;279;28744;-33
2023/05/10 07:52:58;;;;;;;5.00;2.60;;;;;;;;;;108269;279;28125;-35
2023/05/10 07:55:33;;;;;;;4.90;2.60;;;;;;;;;;108223;279;27322;-34
2023/05/10 07:58:07;;;;;;;4.60;2.60;;;;;;;;;;108223;272;29247;-33
2023/05/10 08:00:41;;;;;;;4.80;2.40;;;;;;;;;;107620;279;893288;-33
2023/05/10 08:03:17;;;;;;;4.50;2.40;;;;;;;;;;108189;279;28965;-33
2023/05/10 08:05:54;;;;;;;5.10;2.50;;;;;;;;;;108204;279;27295;-34
2023/05/10 08:08:32;;;;;;;4.90;2.50;;;;;;;;;;108216;276;28253;-33
2023/05/10 08:11:06;;;;;;;5.00;2.40;;;;;;;;;;108171;280;28732;-33
2023/05/10 08:13:39;;;;;;;4.90;2.50;;;;;;;;;;108263;279;27976;-34
2023/05/10 08:16:15;;;;;;;4.70;2.40;;;;;;;;;;108194;272;27564;-35
2023/05/10 08:18:51;;;;;;;4.60;2.30;;;;;;;;;;108206;272;28347;-35
2023/05/10 08:21:31;;;;;;;5.20;2.40;;;;;;;;;;108222;279;28755;-36
2023/05/10 08:24:07;;;;;;;4.70;2.40;;;;;;;;;;108207;272;28087;-37
2023/05/10 08:26:43;;;;;;;4.80;2.30;;;;;;;;;;108318;277;33537;-33
2023/05/10 08:29:16;;;;;;;4.10;2.10;;;;;;;;;;108225;272;28427;-31
2023/05/10 08:31:50;;;;;;;4.50;2.30;;;;;;;;;;108213;276;28718;-34
2023/05/10 08:34:24;;;;;;;4.10;2.10;;;;;;;;;;108272;271;28058;-34
2023/05/10 08:36:59;;;;;;;4.60;2.20;;;;;;;;;;108230;279;33776;-34
2023/05/10 08:39:36;;;;;;;4.00;2.00;;;;;;;;;;108267;279;28433;-34
2023/05/10 08:42:20;;;;;;;4.80;2.20;;;;;;;;;;108168;279;28318;-34
2023/05/10 08:44:59;;;;;;;4.00;2.10;;;;;;;;;;108151;272;28048;-35
2023/05/10 08:47:35;;;;;;;4.00;2.10;;;;;;;;;;108236;276;34706;-35
2023/05/10 08:50:12;;;;;;;4.30;2.00;;;;;;;;;;108207;279;28281;-35
2023/05/10 08:52:50;;;;;;;5.20;2.00;;;;;;;;;;108211;280;28826;-35
2023/05/10 08:55:25;;;;;;;4.50;1.90;;;;;;;;;;108340;272;28182;-35
2023/05/10 08:58:01;;;;;;;5.20;2.00;;;;;;;;;;108123;272;27372;-35
2023/05/10 09:00:36;;;;;;;3.60;1.90;;;;;;;;;;107923;280;39644;-35
2023/05/10 09:03:11;;;;;;;4.40;2.10;;;;;;;;;;107959;272;42849;-36
2023/05/10 09:05:46;;;;;;;4.30;2.10;;;;;;;;;;107982;279;42556;-35
2023/05/10 09:08:27;;;;;;;4.20;2.00;;;;;;;;;;107995;272;38807;-35
2023/05/10 09:11:02;;;;;;;3.90;1.80;;;;;;;;;;107912;279;39712;-36
2023/05/10 09:13:39;;;;;;;4.20;1.90;;;;;;;;;;108172;279;42806;-35
2023/05/10 09:16:15;;;;;;;4.20;1.70;;;;;;;;;;107760;282;522308;-35
2023/05/10 09:18:54;;;;;;;3.90;1.70;;;;;;;;;;108197;280;25271;-36
2023/05/10 09:21:29;;;;;;;4.40;1.80;;;;;;;;;;108383;279;26797;-36
2023/05/10 09:24:05;;;;;;;4.40;1.80;;;;;;;;;;108251;272;26825;-36
2023/05/10 09:26:49;;;;;;;4.10;1.90;;;;;;;;;;108261;272;26357;-35
2023/05/10 09:29:21;;;;;;;3.80;1.60;;;;;;;;;;108233;280;25367;-33
2023/05/10 09:31:58;;;;;;;3.30;1.60;;;;;;;;;;108381;279;26724;-35
2023/05/10 09:34:34;;;;;;;3.70;1.60;;;;;;;;;;108357;279;26792;-35
2023/05/10 09:37:11;;;;;;;3.80;1.80;;;;;;;;;;108174;279;26321;-35
2023/05/10 09:39:47;;;;;;;4.20;1.80;;;;;;;;;;108291;279;25248;-35
2023/05/10 09:42:20;;;;;;;3.80;1.80;;;;;;;;;;108309;279;27599;-33
2023/05/10 09:44:56;;;;;;;3.60;1.70;;;;;;;;;;108231;272;27086;-34
2023/05/10 09:47:30;;;;;;;4.10;1.60;;;;;;;;;;108303;283;26333;-36
2023/05/10 09:50:05;;;;;;;4.50;1.70;;;;;;;;;;108295;279;25320;-36
2023/05/10 09:52:50;;;;;;;3.70;1.60;;;;;;;;;;108258;279;26623;-36
2023/05/10 09:55:23;;;;;;;4.20;1.60;;;;;;;;;;108215;279;27073;-36
2023/05/10 09:58:02;;;;;;;4.00;1.70;;;;;;;;;;108260;279;26425;-34
2023/05/10 10:00:39;;;;;;;3.40;1.70;;;;;;;;;;108372;279;25065;-34
2023/05/10 10:06:22;;;;;;;4.00;1.70;;;;;;;;;;108003;281;27291;-33
2023/05/10 10:09:02;;;;;;;4.60;1.90;;;;;;;;;;108083;286;33104;-34
2023/05/10 10:11:35;;;;;;;4.50;1.70;;;;;;;;;;108170;274;25386;-34
2023/05/10 10:14:09;;;;;;;4.40;1.60;;;;;;;;;;108157;283;26732;-34
2023/05/10 10:16:43;;;;;;;3.70;1.50;;;;;;;;;;108124;287;27034;-32
2023/05/10 10:19:38;;;;;;;3.80;1.60;;;;;;;;;;108133;283;33053;-32
2023/05/10 10:22:13;;;;;;;3.90;1.70;;;;;;;;;;108139;281;25324;-34
2023/05/10 10:24:50;;;;;;;3.60;1.60;;;;;;;;;;108167;281;26797;-33
2023/05/10 10:27:29;;;;;;;4.60;1.60;;;;;;;;;;108158;279;27020;-35
2023/05/10 10:30:08;;;;;;;3.90;1.60;;;;;;;;;;108117;281;32781;-33
2023/05/10 10:33:03;;;;;;;4.20;1.70;;;;;;;;;;108197;274;25248;-34
2023/05/10 10:35:50;;;;;;;3.60;1.80;;;;;;;;;;108156;274;27996;-34
2023/05/10 10:38:26;;;;;;;4.40;1.70;;;;;;;;;;108068;274;27061;-34
2023/05/10 10:41:12;;;;;;;4.70;1.80;;;;;;;;;;108137;274;26368;-34
2023/05/10 10:43:47;;;;;;;4.10;1.60;;;;;;;;;;108114;281;25054;-34
2023/05/10 10:46:21;;;;;;;4.20;1.50;;;;;;;;;;108110;282;26714;-34
2023/05/10 10:49:12;;;;;;;4.20;1.80;;;;;;;;;;108112;281;27198;-34
2023/05/10 10:52:21;;;;;;;4.00;1.60;;;;;;;;;;108131;285;26346;-33
2023/05/10 10:55:00;;;;;;;4.10;1.60;;;;;;;;;;108156;274;25255;-33
2023/05/10 10:57:34;;;;;;;4.00;1.50;;;;;;;;;;108171;281;26721;-33
2023/05/10 11:00:30;;;;;;;4.50;1.70;;;;;;;;;;108088;281;26818;-33
2023/05/10 11:03:08;;;;;;;3.70;1.50;;;;;;;;;;108144;281;26457;-33
2023/05/10 11:05:43;;;;;;;3.10;1.50;;;;;;;;;;108082;274;25762;-33
2023/05/10 11:08:27;;;;;;;3.80;1.60;;;;;;;;;;108132;274;26996;-33
2023/05/10 11:11:11;;;;;;;4.10;1.60;;;;;;;;;;107773;281;48651;-34
2023/05/10 11:13:50;;;;;;;4.20;1.60;;;;;;;;;;107813;282;43326;-34
2023/05/10 11:16:26;;;;;;;3.40;1.70;;;;;;;;;;107823;281;39781;-32
2023/05/10 11:19:10;;;;;;;3.50;1.60;;;;;;;;;;107802;281;39609;-34
2023/05/10 11:21:53;;;;;;;3.80;1.70;;;;;;;;;;107874;281;44525;-34
2023/05/10 11:24:33;;;;;;;3.20;1.60;;;;;;;;;;107831;283;43292;-34
2023/05/10 11:27:08;;;;;;;3.90;1.50;;;;;;;;;;107795;281;39901;-34
2023/05/10 11:29:45;;;;;;;4.40;1.60;;;;;;;;;;107769;281;39752;-34
2023/05/10 11:32:23;;;;;;;3.90;1.70;;;;;;;;;;107829;274;43027;-34
2023/05/10 11:34:58;;;;;;;4.20;1.70;;;;;;;;;;107838;274;41847;-34
2023/05/10 11:37:34;;;;;;;4.00;1.60;;;;;;;;;;107841;279;38840;-34
2023/05/10 11:40:10;;;;;;;4.20;1.50;;;;;;;;;;107838;282;40880;-34
2023/05/10 11:42:45;;;;;;;3.20;1.40;;;;;;;;;;107752;275;42832;-34
2023/05/10 11:45:19;;;;;;;5.00;1.60;;;;;;;;;;107833;274;43473;-34
2023/05/10 11:47:55;;;;;;;4.30;1.60;;;;;;;;;;107874;274;39921;-34
2023/05/10 11:50:30;;;;;;;3.50;1.50;;;;;;;;;;107815;281;39683;-34
2023/05/10 11:53:04;;;;;;;3.40;1.50;;;;;;;;;;107815;281;43963;-34
2023/05/10 11:55:39;;;;;;;3.10;1.40;;;;;;;;;;107814;274;42460;-34
2023/05/10 11:58:14;;;;;;;3.70;1.50;;;;;;;;;;107832;281;38830;-34
2023/05/10 12:00:50;;;;;;;3.70;1.50;;;;;;;;;;107785;274;40882;-34
2023/05/10 12:03:26;;;;;;;3.70;1.50;;;;;;;;;;107829;281;42853;-34
2023/05/10 12:06:04;;;;;;;2.80;1.40;;;;;;;;;;107763;281;42285;-34
2023/05/10 12:08:52;;;;;;;3.50;1.50;;;;;;;;;;107827;282;38736;-34
2023/05/10 12:11:32;;;;;;;3.20;1.50;;;;;;;;;;107770;274;40839;-34
2023/05/10 12:14:09;;;;;;;4.20;1.60;;;;;;;;;;107933;281;44037;-34
2023/05/10 12:16:45;;;;;;;5.40;1.70;;;;;;;;;;108055;282;27852;-34
2023/05/10 12:19:22;;;;;;;3.60;1.60;;;;;;;;;;108160;283;26993;-34
2023/05/10 12:21:56;;;;;;;4.00;1.80;;;;;;;;;;108116;275;28095;-34
2023/05/10 12:24:30;;;;;;;4.00;1.80;;;;;;;;;;108141;283;29712;-34
2023/05/10 12:27:07;;;;;;;4.40;1.70;;;;;;;;;;108188;283;27835;-34
2023/05/10 12:29:45;;;;;;;3.60;1.80;;;;;;;;;;108161;283;26996;-34
2023/05/10 12:32:18;;;;;;;4.10;1.70;;;;;;;;;;108153;283;28185;-34
2023/05/10 12:34:56;;;;;;;3.90;2.00;;;;;;;;;;108163;283;28357;-34
2023/05/10 12:37:35;;;;;;;4.10;1.80;;;;;;;;;;108131;283;29271;-34
2023/05/10 12:40:12;;;;;;;4.60;1.70;;;;;;;;;;108119;283;27422;-34
2023/05/10 12:42:45;;;;;;;3.50;1.60;;;;;;;;;;108114;275;28128;-34
2023/05/10 12:45:21;;;;;;;4.30;1.90;;;;;;;;;;108153;283;28363;-34
2023/05/10 12:47:55;;;;;;;4.30;2.20;;;;;;;;;;108115;283;28077;-34
2023/05/10 12:50:28;;;;;;;3.40;1.80;;;;;;;;;;108124;275;27174;-34
2023/05/10 12:53:02;;;;;;;4.90;2.00;;;;;;;;;;108113;275;36119;-34
2023/05/10 12:55:36;;;;;;;4.20;2.10;;;;;;;;;;108152;284;28694;-32
2023/05/10 12:58:10;;;;;;;4.20;2.00;;;;;;;;;;108092;283;30381;-33
2023/05/10 13:00:46;;;;;;;5.20;2.10;;;;;;;;;;108069;283;27226;-33
2023/05/10 13:03:19;;;;;;;5.90;2.10;;;;;;;;;;108055;287;34164;-33
2023/05/10 13:05:53;;;;;;;4.60;2.10;;;;;;;;;;108023;282;29418;-33
2023/05/10 13:08:29;;;;;;;4.10;2.00;;;;;;;;;;108147;281;27949;-34
2023/05/10 13:11:03;;;;;;;4.30;1.90;;;;;;;;;;108147;282;27183;-34
2023/05/10 13:13:37;;;;;;;3.80;1.80;;;;;;;;;;108127;281;34063;-34
2023/05/10 13:16:11;;;;;;;4.20;1.90;;;;;;;;;;108128;281;28554;-33
2023/05/10 13:18:44;;;;;;;4.20;2.00;;;;;;;;;;108189;274;27892;-32
2023/05/10 13:21:18;;;;;;;4.10;2.00;;;;;;;;;;108146;278;27732;-32
2023/05/10 13:23:51;;;;;;;3.60;1.70;;;;;;;;;;108120;281;35480;-32
2023/05/10 13:26:25;;;;;;;4.60;2.00;;;;;;;;;;108159;281;28689;-33
2023/05/10 13:28:58;;;;;;;4.50;2.00;;;;;;;;;;108138;281;27966;-33
2023/05/10 13:31:31;;;;;;;4.50;2.00;;;;;;;;;;108173;281;26949;-34
2023/05/10 13:34:06;;;;;;;4.50;1.90;;;;;;;;;;108159;281;34003;-34
2023/05/10 13:36:39;;;;;;;4.30;1.80;;;;;;;;;;108165;281;28581;-34
2023/05/10 13:39:12;;;;;;;4.50;1.90;;;;;;;;;;108178;281;28130;-34
2023/05/10 13:41:47;;;;;;;4.70;2.00;;;;;;;;;;108163;281;27195;-33
2023/05/10 13:44:23;;;;;;;5.10;2.00;;;;;;;;;;108124;277;35082;-33
2023/05/10 13:46:58;;;;;;;4.40;1.80;;;;;;;;;;108158;279;28610;-33
2023/05/10 13:49:32;;;;;;;4.50;1.90;;;;;;;;;;108132;287;28121;-34
2023/05/10 13:52:06;;;;;;;3.60;1.70;;;;;;;;;;108132;274;28276;-34
2023/05/10 13:54:40;;;;;;;3.70;1.80;;;;;;;;;;108251;274;35039;-34
2023/05/10 13:57:13;;;;;;;4.40;1.70;;;;;;;;;;108183;281;28347;-34
2023/05/10 13:59:47;;;;;;;4.80;2.00;;;;;;;;;;108136;278;27902;-34
2023/05/10 14:02:21;;;;;;;4.40;1.90;;;;;;;;;;108162;282;27172;-34
2023/05/10 14:04:58;;;;;;;5.10;2.20;;;;;;;;;;108113;281;33907;-34
2023/05/10 14:07:38;;;;;;;3.90;1.90;;;;;;;;;;108132;281;28585;-33
2023/05/10 14:10:13;;;;;;;4.80;2.00;;;;;;;;;;108172;281;27994;-33
2023/05/10 14:12:47;;;;;;;5.10;2.30;;;;;;;;;;108119;281;27231;-31
2023/05/10 14:15:22;;;;;;;6.20;2.10;;;;;;;;;;108106;278;34770;-33
2023/05/10 14:17:57;;;;;;;5.20;2.30;;;;;;;;;;108056;281;175569;-33
2023/05/10 14:20:31;;;;;;;4.60;2.30;;;;;;;;;;108146;281;29153;-35
2023/05/10 14:23:05;;;;;;;5.60;2.30;;;;;;;;;;108138;281;27178;-33
2023/05/10 14:25:40;;;;;;;4.80;2.30;;;;;;;;;;108131;274;35776;-33
2023/05/10 14:28:14;;;;;;;5.30;2.40;;;;;;;;;;108207;281;28587;-33
2023/05/10 14:30:47;;;;;;;4.30;2.10;;;;;;;;;;108150;281;28099;-34
2023/05/10 14:33:21;;;;;;;6.30;2.30;;;;;;;;;;108145;274;27725;-34
2023/05/10 14:35:57;;;;;;;5.10;2.20;;;;;;;;;;108106;274;35615;-32
2023/05/10 14:38:33;;;;;;;5.20;2.30;;;;;;;;;;108091;282;28848;-33
2023/05/10 14:41:07;;;;;;;4.80;2.00;;;;;;;;;;108091;274;27929;-36
2023/05/10 14:43:43;;;;;;;4.50;2.10;;;;;;;;;;107438;281;893227;-34
2023/05/10 14:46:16;;;;;;;4.80;2.50;;;;;;;;;;108180;274;28126;-33
2023/05/10 14:48:50;;;;;;;4.70;2.10;;;;;;;;;;108166;283;29657;-35
2023/05/10 14:51:25;;;;;;;4.90;2.30;;;;;;;;;;108137;282;28149;-34
2023/05/10 14:53:58;;;;;;;4.20;2.00;;;;;;;;;;108145;281;27009;-34
2023/05/10 14:56:33;;;;;;;4.80;2.20;;;;;;;;;;108192;282;28079;-33
2023/05/10 14:59:08;;;;;;;5.00;2.10;;;;;;;;;;108129;281;28785;-33
2023/05/10 15:01:47;;;;;;;5.80;2.30;;;;;;;;;;108208;282;27919;-35
2023/05/10 15:04:23;;;;;;;4.60;2.20;;;;;;;;;;108203;284;27453;-34
2023/05/10 15:07:01;;;;;;;4.50;2.10;;;;;;;;;;108208;283;28309;-34
2023/05/10 15:09:35;;;;;;;4.10;2.30;;;;;;;;;;108246;281;28788;-34
2023/05/10 15:12:09;;;;;;;4.50;2.10;;;;;;;;;;108161;281;27868;-35
2023/05/10 15:14:43;;;;;;;4.00;2.10;;;;;;;;;;108158;281;27306;-35
2023/05/10 15:17:17;;;;;;;4.30;1.90;;;;;;;;;;108059;281;174991;-34
2023/05/10 15:19:52;;;;;;;4.80;2.20;;;;;;;;;;107992;281;181730;-35
2023/05/10 15:22:30;;;;;;;3.90;1.90;;;;;;;;;;108116;281;27918;-35
2023/05/10 15:25:07;;;;;;;4.00;1.90;;;;;;;;;;108137;283;27224;-33
2023/05/10 15:27:43;;;;;;;3.50;1.90;;;;;;;;;;108093;283;175528;-32
2023/05/10 15:30:18;;;;;;;3.70;1.80;;;;;;;;;;108177;282;30774;-34
2023/05/10 15:32:54;;;;;;;3.90;1.90;;;;;;;;;;108163;283;27848;-34
2023/05/10 15:35:28;;;;;;;3.80;2.00;;;;;;;;;;108119;283;27217;-35
2023/05/10 15:38:02;;;;;;;5.70;2.00;;;;;;;;;;108141;283;27834;-35
2023/05/10 15:40:36;;;;;;;3.80;1.70;;;;;;;;;;108153;282;28715;-36
2023/05/10 15:43:10;;;;;;;4.10;1.90;;;;;;;;;;108124;283;27947;-36